sensor_id;sensor_type;location;lat;lon;timestamp;P1;durP1;ratioP1;P2;durP2;ratioP2
64188;SDS011;50493;50.970;10.082;2023-03-01T00:02:09;20.00;;;9.05;;
64188;SDS011;50493;50.970;10.082;2023-03-01T00:04:35;20.20;;;9.43;;
64188;SDS011;50493;50.970;10.082;2023-03-01T00:07:02;18.88;;;9.15;;
64188;SDS011;50493;50.970;10.082;2023-03-01T00:09:27;20.38;;;9.65;;
64188;SDS011;50493;50.970;10.082;2023-03-01T00:11:52;20.35;;;9.50;;
64188;SDS011;50493;50.970;10.082;2023-03-01T00:14:18;18.23;;;9.15;;
64188;SDS011;50493;50.970;10.082;2023-03-01T00:16:43;18.35;;;8.95;;
64188;SDS011;50493;50.970;10.082;2023-03-01T00:19:11;19.33;;;8.90;;
64188;SDS011;50493;50.970;10.082;2023-03-01T00:21:38;18.23;;;8.85;;
64188;SDS011;50493;50.970;10.082;2023-03-01T00:24:06;23.58;;;9.77;;
64188;SDS011;50493;50.970;10.082;2023-03-01T00:26:32;22.95;;;10.13;;
64188;SDS011;50493;50.970;10.082;2023-03-01T00:28:58;18.33;;;8.93;;
64188;SDS011;50493;50.970;10.082;2023-03-01T00:31:24;18.92;;;9.23;;
64188;SDS011;50493;50.970;10.082;2023-03-01T00:33:52;19.73;;;9.88;;
64188;SDS011;50493;50.970;10.082;2023-03-01T00:36:18;20.08;;;9.73;;
64188;SDS011;50493;50.970;10.082;2023-03-01T00:38:44;18.20;;;9.00;;
64188;SDS011;50493;50.970;10.082;2023-03-01T00:41:12;19.85;;;8.50;;
64188;SDS011;50493;50.970;10.082;2023-03-01T00:43:39;18.20;;;9.05;;
64188;SDS011;50493;50.970;10.082;2023-03-01T00:46:06;18.98;;;8.70;;
64188;SDS011;50493;50.970;10.082;2023-03-01T00:48:32;18.80;;;9.40;;
64188;SDS011;50493;50.970;10.082;2023-03-01T00:51:03;18.63;;;9.15;;
64188;SDS011;50493;50.970;10.082;2023-03-01T00:53:29;19.38;;;9.27;;
64188;SDS011;50493;50.970;10.082;2023-03-01T00:55:56;19.42;;;9.13;;
64188;SDS011;50493;50.970;10.082;2023-03-01T00:58:23;20.30;;;9.45;;
64188;SDS011;50493;50.970;10.082;2023-03-01T01:00:48;19.63;;;9.45;;
64188;SDS011;50493;50.970;10.082;2023-03-01T01:03:14;20.30;;;10.05;;
64188;SDS011;50493;50.970;10.082;2023-03-01T01:05:39;21.27;;;9.63;;
64188;SDS011;50493;50.970;10.082;2023-03-01T01:08:04;20.15;;;9.45;;
64188;SDS011;50493;50.970;10.082;2023-03-01T01:10:30;18.63;;;8.90;;
64188;SDS011;50493;50.970;10.082;2023-03-01T01:12:58;19.63;;;8.98;;
64188;SDS011;50493;50.970;10.082;2023-03-01T01:15:24;19.67;;;9.07;;
64188;SDS011;50493;50.970;10.082;2023-03-01T01:17:50;20.50;;;9.68;;
64188;SDS011;50493;50.970;10.082;2023-03-01T01:20:15;19.90;;;9.05;;
64188;SDS011;50493;50.970;10.082;2023-03-01T01:22:41;20.63;;;9.27;;
64188;SDS011;50493;50.970;10.082;2023-03-01T01:25:07;20.55;;;8.63;;
64188;SDS011;50493;50.970;10.082;2023-03-01T01:27:33;18.70;;;9.40;;
64188;SDS011;50493;50.970;10.082;2023-03-01T01:29:58;21.13;;;9.10;;
64188;SDS011;50493;50.970;10.082;2023-03-01T01:32:25;18.95;;;8.65;;
64188;SDS011;50493;50.970;10.082;2023-03-01T01:34:51;18.95;;;8.93;;
64188;SDS011;50493;50.970;10.082;2023-03-01T01:37:16;20.15;;;8.98;;
64188;SDS011;50493;50.970;10.082;2023-03-01T01:39:41;18.50;;;8.70;;
64188;SDS011;50493;50.970;10.082;2023-03-01T01:42:08;19.77;;;10.10;;
64188;SDS011;50493;50.970;10.082;2023-03-01T01:44:39;19.33;;;8.70;;
64188;SDS011;50493;50.970;10.082;2023-03-01T01:47:05;19.27;;;9.15;;
64188;SDS011;50493;50.970;10.082;2023-03-01T01:49:35;18.25;;;8.75;;
64188;SDS011;50493;50.970;10.082;2023-03-01T01:52:05;19.60;;;9.00;;
64188;SDS011;50493;50.970;10.082;2023-03-01T01:54:37;22.08;;;10.13;;
64188;SDS011;50493;50.970;10.082;2023-03-01T01:57:07;18.50;;;8.45;;
64188;SDS011;50493;50.970;10.082;2023-03-01T01:59:37;18.65;;;8.65;;
64188;SDS011;50493;50.970;10.082;2023-03-01T02:02:03;18.08;;;9.32;;
64188;SDS011;50493;50.970;10.082;2023-03-01T02:04:30;19.48;;;8.52;;
64188;SDS011;50493;50.970;10.082;2023-03-01T02:07:00;18.27;;;8.57;;
64188;SDS011;50493;50.970;10.082;2023-03-01T02:09:28;18.38;;;8.32;;
64188;SDS011;50493;50.970;10.082;2023-03-01T02:11:55;19.45;;;8.52;;
64188;SDS011;50493;50.970;10.082;2023-03-01T02:14:20;18.52;;;8.52;;
64188;SDS011;50493;50.970;10.082;2023-03-01T02:16:46;18.58;;;9.05;;
64188;SDS011;50493;50.970;10.082;2023-03-01T02:19:13;18.42;;;8.23;;
64188;SDS011;50493;50.970;10.082;2023-03-01T02:24:24;17.77;;;8.45;;
64188;SDS011;50493;50.970;10.082;2023-03-01T02:26:57;19.00;;;8.60;;
64188;SDS011;50493;50.970;10.082;2023-03-01T02:29:25;18.58;;;8.68;;
64188;SDS011;50493;50.970;10.082;2023-03-01T02:31:52;21.13;;;9.43;;
64188;SDS011;50493;50.970;10.082;2023-03-01T02:34:23;19.52;;;9.07;;
64188;SDS011;50493;50.970;10.082;2023-03-01T02:36:51;18.63;;;9.05;;
64188;SDS011;50493;50.970;10.082;2023-03-01T02:39:21;19.92;;;8.38;;
64188;SDS011;50493;50.970;10.082;2023-03-01T02:41:51;20.13;;;9.02;;
64188;SDS011;50493;50.970;10.082;2023-03-01T02:44:19;19.92;;;9.50;;
64188;SDS011;50493;50.970;10.082;2023-03-01T02:46:47;18.60;;;8.23;;
64188;SDS011;50493;50.970;10.082;2023-03-01T02:49:18;20.77;;;8.88;;
64188;SDS011;50493;50.970;10.082;2023-03-01T02:51:47;17.33;;;8.38;;
64188;SDS011;50493;50.970;10.082;2023-03-01T02:54:22;20.65;;;8.75;;
64188;SDS011;50493;50.970;10.082;2023-03-01T02:56:52;20.90;;;9.07;;
64188;SDS011;50493;50.970;10.082;2023-03-01T02:59:20;17.08;;;8.55;;
64188;SDS011;50493;50.970;10.082;2023-03-01T03:01:48;19.70;;;8.82;;
64188;SDS011;50493;50.970;10.082;2023-03-01T03:04:15;21.02;;;8.93;;
64188;SDS011;50493;50.970;10.082;2023-03-01T03:06:42;19.95;;;8.25;;
64188;SDS011;50493;50.970;10.082;2023-03-01T03:09:09;20.73;;;9.00;;
64188;SDS011;50493;50.970;10.082;2023-03-01T03:11:34;17.95;;;8.52;;
64188;SDS011;50493;50.970;10.082;2023-03-01T03:14:01;18.23;;;8.30;;
64188;SDS011;50493;50.970;10.082;2023-03-01T03:16:27;17.38;;;8.52;;
64188;SDS011;50493;50.970;10.082;2023-03-01T03:18:56;20.88;;;9.25;;
64188;SDS011;50493;50.970;10.082;2023-03-01T03:21:29;20.55;;;9.13;;
64188;SDS011;50493;50.970;10.082;2023-03-01T03:23:55;18.80;;;8.75;;
64188;SDS011;50493;50.970;10.082;2023-03-01T03:26:20;20.95;;;9.07;;
64188;SDS011;50493;50.970;10.082;2023-03-01T03:28:45;21.02;;;9.10;;
64188;SDS011;50493;50.970;10.082;2023-03-01T03:31:11;19.27;;;8.30;;
64188;SDS011;50493;50.970;10.082;2023-03-01T03:33:37;18.23;;;8.50;;
64188;SDS011;50493;50.970;10.082;2023-03-01T03:36:04;20.92;;;8.32;;
64188;SDS011;50493;50.970;10.082;2023-03-01T03:38:30;19.80;;;9.48;;
64188;SDS011;50493;50.970;10.082;2023-03-01T03:40:59;16.17;;;8.18;;
64188;SDS011;50493;50.970;10.082;2023-03-01T03:43:27;17.60;;;8.27;;
64188;SDS011;50493;50.970;10.082;2023-03-01T03:45:54;18.27;;;8.80;;
64188;SDS011;50493;50.970;10.082;2023-03-01T03:48:22;17.65;;;8.07;;
64188;SDS011;50493;50.970;10.082;2023-03-01T03:50:48;18.60;;;8.45;;
64188;SDS011;50493;50.970;10.082;2023-03-01T03:53:16;18.25;;;8.57;;
64188;SDS011;50493;50.970;10.082;2023-03-01T03:55:42;16.33;;;7.72;;
64188;SDS011;50493;50.970;10.082;2023-03-01T03:58:10;18.02;;;8.35;;
64188;SDS011;50493;50.970;10.082;2023-03-01T04:00:36;19.42;;;8.90;;
64188;SDS011;50493;50.970;10.082;2023-03-01T04:03:03;21.40;;;9.63;;
64188;SDS011;50493;50.970;10.082;2023-03-01T04:05:29;20.98;;;9.35;;
64188;SDS011;50493;50.970;10.082;2023-03-01T04:07:55;18.30;;;8.13;;
64188;SDS011;50493;50.970;10.082;2023-03-01T04:10:28;19.38;;;8.15;;
64188;SDS011;50493;50.970;10.082;2023-03-01T04:12:55;18.67;;;8.63;;
64188;SDS011;50493;50.970;10.082;2023-03-01T04:15:21;17.83;;;7.70;;
64188;SDS011;50493;50.970;10.082;2023-03-01T04:17:49;18.65;;;8.82;;
64188;SDS011;50493;50.970;10.082;2023-03-01T04:20:17;20.48;;;8.35;;
64188;SDS011;50493;50.970;10.082;2023-03-01T04:22:49;19.75;;;8.05;;
64188;SDS011;50493;50.970;10.082;2023-03-01T04:25:15;20.10;;;9.18;;
64188;SDS011;50493;50.970;10.082;2023-03-01T04:27:42;22.83;;;9.00;;
64188;SDS011;50493;50.970;10.082;2023-03-01T04:30:08;22.20;;;8.88;;
64188;SDS011;50493;50.970;10.082;2023-03-01T04:32:34;19.58;;;8.80;;
64188;SDS011;50493;50.970;10.082;2023-03-01T04:34:59;20.00;;;8.90;;
64188;SDS011;50493;50.970;10.082;2023-03-01T04:37:25;19.52;;;8.90;;
64188;SDS011;50493;50.970;10.082;2023-03-01T04:39:51;21.58;;;9.00;;
64188;SDS011;50493;50.970;10.082;2023-03-01T04:42:16;18.52;;;8.52;;
64188;SDS011;50493;50.970;10.082;2023-03-01T04:44:44;21.45;;;9.63;;
64188;SDS011;50493;50.970;10.082;2023-03-01T04:47:10;20.40;;;8.98;;
64188;SDS011;50493;50.970;10.082;2023-03-01T04:49:35;18.92;;;9.18;;
64188;SDS011;50493;50.970;10.082;2023-03-01T04:52:01;21.30;;;9.38;;
64188;SDS011;50493;50.970;10.082;2023-03-01T04:54:27;20.45;;;9.02;;
64188;SDS011;50493;50.970;10.082;2023-03-01T04:56:53;19.75;;;9.20;;
64188;SDS011;50493;50.970;10.082;2023-03-01T04:59:18;21.15;;;9.52;;
64188;SDS011;50493;50.970;10.082;2023-03-01T05:01:48;23.45;;;8.77;;
64188;SDS011;50493;50.970;10.082;2023-03-01T05:04:14;24.08;;;10.05;;
64188;SDS011;50493;50.970;10.082;2023-03-01T05:06:39;20.15;;;9.13;;
64188;SDS011;50493;50.970;10.082;2023-03-01T05:09:05;20.08;;;8.77;;
64188;SDS011;50493;50.970;10.082;2023-03-01T05:11:31;23.02;;;9.82;;
64188;SDS011;50493;50.970;10.082;2023-03-01T05:14:00;19.80;;;8.88;;
64188;SDS011;50493;50.970;10.082;2023-03-01T05:16:26;19.70;;;9.32;;
64188;SDS011;50493;50.970;10.082;2023-03-01T05:18:52;22.15;;;9.85;;
64188;SDS011;50493;50.970;10.082;2023-03-01T05:21:20;24.35;;;10.30;;
64188;SDS011;50493;50.970;10.082;2023-03-01T05:23:46;22.98;;;10.10;;
64188;SDS011;50493;50.970;10.082;2023-03-01T05:26:11;22.25;;;9.77;;
64188;SDS011;50493;50.970;10.082;2023-03-01T05:28:37;23.77;;;11.18;;
64188;SDS011;50493;50.970;10.082;2023-03-01T05:31:03;23.95;;;10.73;;
64188;SDS011;50493;50.970;10.082;2023-03-01T05:33:34;24.15;;;11.25;;
64188;SDS011;50493;50.970;10.082;2023-03-01T05:36:01;21.23;;;10.10;;
64188;SDS011;50493;50.970;10.082;2023-03-01T05:38:27;23.50;;;10.30;;
64188;SDS011;50493;50.970;10.082;2023-03-01T05:40:53;25.75;;;11.07;;
64188;SDS011;50493;50.970;10.082;2023-03-01T05:43:18;23.50;;;10.48;;
64188;SDS011;50493;50.970;10.082;2023-03-01T05:45:44;24.17;;;10.25;;
64188;SDS011;50493;50.970;10.082;2023-03-01T05:48:10;25.23;;;10.60;;
64188;SDS011;50493;50.970;10.082;2023-03-01T05:50:36;26.70;;;10.52;;
64188;SDS011;50493;50.970;10.082;2023-03-01T05:53:06;23.45;;;10.02;;
64188;SDS011;50493;50.970;10.082;2023-03-01T05:55:34;29.65;;;12.18;;
64188;SDS011;50493;50.970;10.082;2023-03-01T05:58:01;21.30;;;10.23;;
64188;SDS011;50493;50.970;10.082;2023-03-01T06:00:28;23.30;;;10.55;;
64188;SDS011;50493;50.970;10.082;2023-03-01T06:02:54;27.58;;;12.00;;
64188;SDS011;50493;50.970;10.082;2023-03-01T06:05:20;36.53;;;16.17;;
64188;SDS011;50493;50.970;10.082;2023-03-01T06:07:47;37.22;;;17.08;;
64188;SDS011;50493;50.970;10.082;2023-03-01T06:10:14;40.97;;;18.70;;
64188;SDS011;50493;50.970;10.082;2023-03-01T06:12:40;36.00;;;16.83;;
64188;SDS011;50493;50.970;10.082;2023-03-01T06:15:07;38.60;;;17.25;;
64188;SDS011;50493;50.970;10.082;2023-03-01T06:17:35;39.00;;;17.25;;
64188;SDS011;50493;50.970;10.082;2023-03-01T06:20:04;34.25;;;15.65;;
64188;SDS011;50493;50.970;10.082;2023-03-01T06:22:32;35.47;;;15.60;;
64188;SDS011;50493;50.970;10.082;2023-03-01T06:24:57;38.85;;;16.13;;
64188;SDS011;50493;50.970;10.082;2023-03-01T06:27:24;35.63;;;17.02;;
64188;SDS011;50493;50.970;10.082;2023-03-01T06:29:49;37.65;;;17.05;;
64188;SDS011;50493;50.970;10.082;2023-03-01T06:32:15;34.72;;;15.93;;
64188;SDS011;50493;50.970;10.082;2023-03-01T06:34:40;31.48;;;14.27;;
64188;SDS011;50493;50.970;10.082;2023-03-01T06:37:05;33.83;;;14.75;;
64188;SDS011;50493;50.970;10.082;2023-03-01T06:39:31;32.78;;;14.50;;
64188;SDS011;50493;50.970;10.082;2023-03-01T06:41:57;29.80;;;12.30;;
64188;SDS011;50493;50.970;10.082;2023-03-01T06:44:24;36.53;;;15.20;;
64188;SDS011;50493;50.970;10.082;2023-03-01T06:46:49;31.85;;;13.85;;
64188;SDS011;50493;50.970;10.082;2023-03-01T06:49:15;29.90;;;13.57;;
64188;SDS011;50493;50.970;10.082;2023-03-01T06:51:42;32.13;;;14.27;;
64188;SDS011;50493;50.970;10.082;2023-03-01T06:54:08;30.60;;;14.20;;
64188;SDS011;50493;50.970;10.082;2023-03-01T06:56:33;31.08;;;13.98;;
64188;SDS011;50493;50.970;10.082;2023-03-01T06:58:59;27.88;;;13.65;;
64188;SDS011;50493;50.970;10.082;2023-03-01T07:01:25;29.08;;;13.82;;
64188;SDS011;50493;50.970;10.082;2023-03-01T07:03:51;30.25;;;14.35;;
64188;SDS011;50493;50.970;10.082;2023-03-01T07:06:16;28.52;;;13.85;;
64188;SDS011;50493;50.970;10.082;2023-03-01T07:08:42;28.75;;;14.27;;
64188;SDS011;50493;50.970;10.082;2023-03-01T07:11:08;28.85;;;13.40;;
64188;SDS011;50493;50.970;10.082;2023-03-01T07:13:33;25.50;;;13.38;;
64188;SDS011;50493;50.970;10.082;2023-03-01T07:15:58;25.52;;;12.95;;
64188;SDS011;50493;50.970;10.082;2023-03-01T07:18:25;25.90;;;12.93;;
64188;SDS011;50493;50.970;10.082;2023-03-01T07:20:50;28.20;;;13.88;;
64188;SDS011;50493;50.970;10.082;2023-03-01T07:23:15;26.60;;;13.23;;
64188;SDS011;50493;50.970;10.082;2023-03-01T07:25:41;23.75;;;12.75;;
64188;SDS011;50493;50.970;10.082;2023-03-01T07:28:06;24.33;;;13.18;;
64188;SDS011;50493;50.970;10.082;2023-03-01T07:30:32;24.88;;;11.90;;
64188;SDS011;50493;50.970;10.082;2023-03-01T07:32:57;22.83;;;12.82;;
64188;SDS011;50493;50.970;10.082;2023-03-01T07:35:25;23.48;;;12.38;;
64188;SDS011;50493;50.970;10.082;2023-03-01T07:37:51;23.55;;;12.73;;
64188;SDS011;50493;50.970;10.082;2023-03-01T07:40:17;27.38;;;12.85;;
64188;SDS011;50493;50.970;10.082;2023-03-01T07:42:42;23.67;;;12.60;;
64188;SDS011;50493;50.970;10.082;2023-03-01T07:45:08;21.90;;;13.32;;
64188;SDS011;50493;50.970;10.082;2023-03-01T07:47:34;21.75;;;11.57;;
64188;SDS011;50493;50.970;10.082;2023-03-01T07:49:59;19.70;;;11.80;;
64188;SDS011;50493;50.970;10.082;2023-03-01T07:52:27;21.13;;;12.02;;
64188;SDS011;50493;50.970;10.082;2023-03-01T07:54:52;18.75;;;11.88;;
64188;SDS011;50493;50.970;10.082;2023-03-01T07:57:18;19.38;;;11.60;;
64188;SDS011;50493;50.970;10.082;2023-03-01T07:59:43;21.67;;;13.35;;
64188;SDS011;50493;50.970;10.082;2023-03-01T08:02:09;21.55;;;12.55;;
64188;SDS011;50493;50.970;10.082;2023-03-01T08:04:35;24.10;;;13.32;;
64188;SDS011;50493;50.970;10.082;2023-03-01T08:07:00;23.42;;;14.23;;
64188;SDS011;50493;50.970;10.082;2023-03-01T08:09:27;29.70;;;16.67;;
64188;SDS011;50493;50.970;10.082;2023-03-01T08:11:52;28.25;;;15.95;;
64188;SDS011;50493;50.970;10.082;2023-03-01T08:14:19;25.40;;;14.40;;
64188;SDS011;50493;50.970;10.082;2023-03-01T08:16:44;25.23;;;14.60;;
64188;SDS011;50493;50.970;10.082;2023-03-01T08:19:11;25.48;;;15.57;;
64188;SDS011;50493;50.970;10.082;2023-03-01T08:21:37;19.77;;;12.52;;
64188;SDS011;50493;50.970;10.082;2023-03-01T08:24:04;18.40;;;11.00;;
64188;SDS011;50493;50.970;10.082;2023-03-01T08:26:32;19.33;;;11.90;;
64188;SDS011;50493;50.970;10.082;2023-03-01T08:28:58;19.73;;;12.05;;
64188;SDS011;50493;50.970;10.082;2023-03-01T08:31:25;18.17;;;11.45;;
64188;SDS011;50493;50.970;10.082;2023-03-01T08:33:53;18.67;;;12.18;;
64188;SDS011;50493;50.970;10.082;2023-03-01T08:36:21;18.95;;;10.98;;
64188;SDS011;50493;50.970;10.082;2023-03-01T08:38:46;18.48;;;11.40;;
64188;SDS011;50493;50.970;10.082;2023-03-01T08:41:11;18.65;;;12.45;;
64188;SDS011;50493;50.970;10.082;2023-03-01T08:43:38;18.73;;;12.25;;
64188;SDS011;50493;50.970;10.082;2023-03-01T08:46:04;18.85;;;12.02;;
64188;SDS011;50493;50.970;10.082;2023-03-01T08:48:29;18.90;;;11.65;;
64188;SDS011;50493;50.970;10.082;2023-03-01T08:50:54;18.85;;;11.90;;
64188;SDS011;50493;50.970;10.082;2023-03-01T08:53:20;19.10;;;12.00;;
64188;SDS011;50493;50.970;10.082;2023-03-01T08:55:45;17.63;;;11.77;;
64188;SDS011;50493;50.970;10.082;2023-03-01T08:58:11;17.73;;;11.25;;
64188;SDS011;50493;50.970;10.082;2023-03-01T09:00:37;17.48;;;11.65;;
64188;SDS011;50493;50.970;10.082;2023-03-01T09:03:03;19.95;;;12.80;;
64188;SDS011;50493;50.970;10.082;2023-03-01T09:05:30;22.63;;;13.95;;
64188;SDS011;50493;50.970;10.082;2023-03-01T09:07:56;21.30;;;12.98;;
64188;SDS011;50493;50.970;10.082;2023-03-01T09:10:22;18.38;;;11.93;;
64188;SDS011;50493;50.970;10.082;2023-03-01T09:12:47;23.65;;;15.38;;
64188;SDS011;50493;50.970;10.082;2023-03-01T09:15:12;17.88;;;10.93;;
64188;SDS011;50493;50.970;10.082;2023-03-01T09:17:39;18.55;;;12.43;;
64188;SDS011;50493;50.970;10.082;2023-03-01T09:20:05;18.42;;;11.50;;
64188;SDS011;50493;50.970;10.082;2023-03-01T09:22:31;20.42;;;13.25;;
64188;SDS011;50493;50.970;10.082;2023-03-01T09:24:58;17.92;;;12.18;;
64188;SDS011;50493;50.970;10.082;2023-03-01T09:27:24;20.60;;;12.95;;
64188;SDS011;50493;50.970;10.082;2023-03-01T09:29:50;26.35;;;14.13;;
64188;SDS011;50493;50.970;10.082;2023-03-01T09:32:15;21.85;;;13.27;;
64188;SDS011;50493;50.970;10.082;2023-03-01T09:34:42;19.83;;;12.20;;
64188;SDS011;50493;50.970;10.082;2023-03-01T09:37:28;18.27;;;11.23;;
64188;SDS011;50493;50.970;10.082;2023-03-01T09:39:54;24.27;;;15.32;;
64188;SDS011;50493;50.970;10.082;2023-03-01T09:42:19;19.50;;;11.80;;
64188;SDS011;50493;50.970;10.082;2023-03-01T09:44:45;24.13;;;14.98;;
64188;SDS011;50493;50.970;10.082;2023-03-01T09:47:17;23.52;;;14.48;;
64188;SDS011;50493;50.970;10.082;2023-03-01T09:49:45;21.88;;;14.82;;
64188;SDS011;50493;50.970;10.082;2023-03-01T09:52:23;20.63;;;12.65;;
64188;SDS011;50493;50.970;10.082;2023-03-01T09:54:55;21.42;;;12.90;;
64188;SDS011;50493;50.970;10.082;2023-03-01T09:57:24;20.63;;;12.50;;
64188;SDS011;50493;50.970;10.082;2023-03-01T10:00:00;19.13;;;12.05;;
64188;SDS011;50493;50.970;10.082;2023-03-01T10:02:38;20.10;;;12.38;;
64188;SDS011;50493;50.970;10.082;2023-03-01T10:05:16;20.58;;;11.70;;
64188;SDS011;50493;50.970;10.082;2023-03-01T10:07:52;19.25;;;11.73;;
64188;SDS011;50493;50.970;10.082;2023-03-01T10:10:27;20.08;;;13.52;;
64188;SDS011;50493;50.970;10.082;2023-03-01T10:12:54;20.08;;;12.45;;
64188;SDS011;50493;50.970;10.082;2023-03-01T10:15:22;21.05;;;11.63;;
64188;SDS011;50493;50.970;10.082;2023-03-01T10:17:55;19.70;;;11.75;;
64188;SDS011;50493;50.970;10.082;2023-03-01T10:20:24;19.55;;;12.30;;
64188;SDS011;50493;50.970;10.082;2023-03-01T10:22:51;19.27;;;12.23;;
64188;SDS011;50493;50.970;10.082;2023-03-01T10:25:23;20.10;;;11.90;;
64188;SDS011;50493;50.970;10.082;2023-03-01T10:28:02;20.65;;;12.73;;
64188;SDS011;50493;50.970;10.082;2023-03-01T10:30:35;21.50;;;13.48;;
64188;SDS011;50493;50.970;10.082;2023-03-01T10:33:04;20.20;;;13.85;;
64188;SDS011;50493;50.970;10.082;2023-03-01T10:35:40;23.83;;;13.20;;
64188;SDS011;50493;50.970;10.082;2023-03-01T10:38:06;20.13;;;11.45;;
64188;SDS011;50493;50.970;10.082;2023-03-01T10:40:33;20.27;;;12.73;;
64188;SDS011;50493;50.970;10.082;2023-03-01T10:43:00;18.70;;;12.55;;
64188;SDS011;50493;50.970;10.082;2023-03-01T10:45:30;20.88;;;12.80;;
64188;SDS011;50493;50.970;10.082;2023-03-01T10:48:08;20.80;;;13.60;;
64188;SDS011;50493;50.970;10.082;2023-03-01T10:50:39;19.80;;;12.15;;
64188;SDS011;50493;50.970;10.082;2023-03-01T10:53:16;18.35;;;12.60;;
64188;SDS011;50493;50.970;10.082;2023-03-01T10:55:46;19.60;;;12.63;;
64188;SDS011;50493;50.970;10.082;2023-03-01T10:58:18;18.23;;;11.95;;
64188;SDS011;50493;50.970;10.082;2023-03-01T11:00:46;18.90;;;11.88;;
64188;SDS011;50493;50.970;10.082;2023-03-01T11:03:14;18.67;;;11.95;;
64188;SDS011;50493;50.970;10.082;2023-03-01T11:05:52;20.17;;;12.55;;
64188;SDS011;50493;50.970;10.082;2023-03-01T11:08:36;20.10;;;12.80;;
64188;SDS011;50493;50.970;10.082;2023-03-01T11:13:58;19.30;;;11.80;;
64188;SDS011;50493;50.970;10.082;2023-03-01T11:16:26;20.05;;;11.82;;
64188;SDS011;50493;50.970;10.082;2023-03-01T11:18:58;19.40;;;13.02;;
64188;SDS011;50493;50.970;10.082;2023-03-01T11:21:28;19.45;;;12.23;;
64188;SDS011;50493;50.970;10.082;2023-03-01T11:23:57;20.98;;;14.95;;
64188;SDS011;50493;50.970;10.082;2023-03-01T11:26:26;21.38;;;13.40;;
64188;SDS011;50493;50.970;10.082;2023-03-01T11:28:54;23.23;;;13.32;;
64188;SDS011;50493;50.970;10.082;2023-03-01T11:31:23;20.50;;;12.90;;
64188;SDS011;50493;50.970;10.082;2023-03-01T11:33:53;21.92;;;11.90;;
64188;SDS011;50493;50.970;10.082;2023-03-01T11:36:24;19.60;;;12.50;;
64188;SDS011;50493;50.970;10.082;2023-03-01T11:38:56;21.90;;;13.13;;
64188;SDS011;50493;50.970;10.082;2023-03-01T11:41:28;22.15;;;13.13;;
64188;SDS011;50493;50.970;10.082;2023-03-01T11:46:37;21.65;;;13.25;;
64188;SDS011;50493;50.970;10.082;2023-03-01T11:49:24;22.55;;;14.45;;
64188;SDS011;50493;50.970;10.082;2023-03-01T11:52:06;21.02;;;11.98;;
64188;SDS011;50493;50.970;10.082;2023-03-01T11:54:42;41.53;;;18.05;;
64188;SDS011;50493;50.970;10.082;2023-03-01T11:57:20;35.00;;;19.52;;
64188;SDS011;50493;50.970;10.082;2023-03-01T12:00:02;23.42;;;15.13;;
64188;SDS011;50493;50.970;10.082;2023-03-01T12:02:58;19.50;;;11.55;;
64188;SDS011;50493;50.970;10.082;2023-03-01T12:08:39;21.58;;;13.00;;
64188;SDS011;50493;50.970;10.082;2023-03-01T12:11:11;20.65;;;11.98;;
64188;SDS011;50493;50.970;10.082;2023-03-01T12:13:59;19.67;;;13.07;;
64188;SDS011;50493;50.970;10.082;2023-03-01T12:16:40;26.75;;;17.17;;
64188;SDS011;50493;50.970;10.082;2023-03-01T12:19:31;22.30;;;13.43;;
64188;SDS011;50493;50.970;10.082;2023-03-01T12:22:09;19.98;;;13.77;;
64188;SDS011;50493;50.970;10.082;2023-03-01T12:24:49;21.45;;;12.63;;
64188;SDS011;50493;50.970;10.082;2023-03-01T12:27:32;20.88;;;13.18;;
64188;SDS011;50493;50.970;10.082;2023-03-01T12:30:17;21.10;;;13.63;;
64188;SDS011;50493;50.970;10.082;2023-03-01T12:32:52;19.15;;;11.88;;
64188;SDS011;50493;50.970;10.082;2023-03-01T12:35:36;19.92;;;12.55;;
64188;SDS011;50493;50.970;10.082;2023-03-01T12:38:18;19.80;;;12.75;;
64188;SDS011;50493;50.970;10.082;2023-03-01T12:41:10;20.80;;;12.75;;
64188;SDS011;50493;50.970;10.082;2023-03-01T12:43:49;20.48;;;14.90;;
64188;SDS011;50493;50.970;10.082;2023-03-01T12:46:25;20.85;;;12.77;;
64188;SDS011;50493;50.970;10.082;2023-03-01T12:49:05;22.25;;;12.85;;
64188;SDS011;50493;50.970;10.082;2023-03-01T12:51:35;20.50;;;13.15;;
64188;SDS011;50493;50.970;10.082;2023-03-01T12:54:05;20.30;;;12.82;;
64188;SDS011;50493;50.970;10.082;2023-03-01T12:56:38;21.50;;;13.10;;
64188;SDS011;50493;50.970;10.082;2023-03-01T12:59:07;22.40;;;12.57;;
64188;SDS011;50493;50.970;10.082;2023-03-01T13:01:41;21.83;;;13.45;;
64188;SDS011;50493;50.970;10.082;2023-03-01T13:04:16;25.08;;;13.90;;
64188;SDS011;50493;50.970;10.082;2023-03-01T13:07:02;21.83;;;12.45;;
64188;SDS011;50493;50.970;10.082;2023-03-01T13:09:37;23.40;;;13.85;;
64188;SDS011;50493;50.970;10.082;2023-03-01T13:15:24;25.05;;;14.30;;
64188;SDS011;50493;50.970;10.082;2023-03-01T13:17:51;23.70;;;13.55;;
64188;SDS011;50493;50.970;10.082;2023-03-01T13:20:19;22.23;;;11.88;;
64188;SDS011;50493;50.970;10.082;2023-03-01T13:22:46;23.10;;;13.90;;
64188;SDS011;50493;50.970;10.082;2023-03-01T13:25:13;22.25;;;13.50;;
64188;SDS011;50493;50.970;10.082;2023-03-01T13:27:41;23.13;;;15.10;;
64188;SDS011;50493;50.970;10.082;2023-03-01T13:30:37;22.45;;;13.05;;
64188;SDS011;50493;50.970;10.082;2023-03-01T13:35:59;23.08;;;14.02;;
64188;SDS011;50493;50.970;10.082;2023-03-01T13:38:39;19.45;;;13.95;;
64188;SDS011;50493;50.970;10.082;2023-03-01T13:41:11;26.75;;;16.83;;
64188;SDS011;50493;50.970;10.082;2023-03-01T13:43:38;20.65;;;13.02;;
64188;SDS011;50493;50.970;10.082;2023-03-01T13:46:09;21.48;;;13.07;;
64188;SDS011;50493;50.970;10.082;2023-03-01T13:48:39;19.58;;;11.80;;
64188;SDS011;50493;50.970;10.082;2023-03-01T13:51:06;17.50;;;11.75;;
64188;SDS011;50493;50.970;10.082;2023-03-01T13:53:34;20.00;;;12.68;;
64188;SDS011;50493;50.970;10.082;2023-03-01T13:56:07;21.90;;;14.02;;
64188;SDS011;50493;50.970;10.082;2023-03-01T13:58:43;25.42;;;15.15;;
64188;SDS011;50493;50.970;10.082;2023-03-01T14:01:20;16.77;;;10.90;;
64188;SDS011;50493;50.970;10.082;2023-03-01T14:03:47;22.73;;;12.05;;
64188;SDS011;50493;50.970;10.082;2023-03-01T14:06:13;20.00;;;12.10;;
64188;SDS011;50493;50.970;10.082;2023-03-01T14:08:40;21.55;;;13.02;;
64188;SDS011;50493;50.970;10.082;2023-03-01T14:14:01;20.48;;;11.98;;
64188;SDS011;50493;50.970;10.082;2023-03-01T14:16:40;20.00;;;12.23;;
64188;SDS011;50493;50.970;10.082;2023-03-01T14:19:14;18.60;;;11.75;;
64188;SDS011;50493;50.970;10.082;2023-03-01T14:21:42;18.77;;;11.02;;
64188;SDS011;50493;50.970;10.082;2023-03-01T14:24:14;19.10;;;11.20;;
64188;SDS011;50493;50.970;10.082;2023-03-01T14:26:42;17.23;;;9.93;;
64188;SDS011;50493;50.970;10.082;2023-03-01T14:29:22;20.75;;;11.18;;
64188;SDS011;50493;50.970;10.082;2023-03-01T14:31:50;17.20;;;9.48;;
64188;SDS011;50493;50.970;10.082;2023-03-01T14:34:18;19.42;;;10.30;;
64188;SDS011;50493;50.970;10.082;2023-03-01T14:36:45;19.35;;;11.82;;
64188;SDS011;50493;50.970;10.082;2023-03-01T14:39:16;18.73;;;11.52;;
64188;SDS011;50493;50.970;10.082;2023-03-01T14:41:42;20.05;;;11.35;;
64188;SDS011;50493;50.970;10.082;2023-03-01T14:44:11;20.15;;;11.95;;